Time;durP1;ratioP1;P1;durP2;ratioP2;P2;SDS_P1;SDS_P2;PMS_P1;PMS_P2;Temp;Humidity;BMP_temperature;BMP_pressure;BME280_temperature;BME280_humidity;BME280_pressure;Samples;Min_cycle;Max_cycle;Signal;HPM_P1;HPM_P2
2021/08/28 00:01:25;;;;;;;18.33;10.83;;;8.10;99.90;;;;;;4420346;28;658017;-70
2021/08/28 00:04:14;;;;;;;18.33;10.77;;;8.00;99.90;;;;;;4410709;28;657783;-70
2021/08/28 00:07:02;;;;;;;16.40;10.23;;;8.10;99.90;;;;;;4420144;28;657348;-70
2021/08/28 00:09:49;;;;;;;20.90;10.80;;;8.00;99.90;;;;;;4411400;28;658326;-70
2021/08/28 00:12:37;;;;;;;19.53;10.53;;;8.00;99.90;;;;;;4412913;28;657647;-70
2021/08/28 00:15:25;;;;;;;21.23;11.00;;;8.00;99.90;;;;;;4433659;28;657424;-70
2021/08/28 00:18:12;;;;;;;16.47;10.90;;;8.00;99.90;;;;;;4410051;28;658143;-70
2021/08/28 00:21:01;;;;;;;16.17;10.20;;;8.00;99.90;;;;;;4426385;28;658038;-70
2021/08/28 00:23:49;;;;;;;18.10;10.77;;;8.00;99.90;;;;;;4406965;28;658882;-70
2021/08/28 00:26:39;;;;;;;18.43;10.73;;;8.00;99.90;;;;;;4421904;28;657646;-70
2021/08/28 00:29:27;;;;;;;15.43;9.97;;;7.90;99.90;;;;;;4401755;28;657797;-70
2021/08/28 00:32:15;;;;;;;21.50;10.80;;;7.90;99.90;;;;;;4435280;28;657450;-70
2021/08/28 00:35:03;;;;;;;16.10;10.37;;;7.90;99.90;;;;;;4411175;28;657643;-70
2021/08/28 00:37:52;;;;;;;17.50;10.53;;;7.90;99.90;;;;;;4429193;28;658024;-70
2021/08/28 00:40:39;;;;;;;16.90;10.60;;;8.00;99.90;;;;;;4405541;28;658362;-70
2021/08/28 00:43:28;;;;;;;22.90;10.87;;;7.90;99.90;;;;;;4417799;28;657260;-70
2021/08/28 00:46:15;;;;;;;15.27;9.80;;;7.90;99.90;;;;;;4429080;28;658018;-70
2021/08/28 00:49:03;;;;;;;16.33;9.73;;;7.90;99.90;;;;;;4403386;28;656586;-70
2021/08/28 00:51:50;;;;;;;15.98;10.30;;;7.90;99.90;;;;;;4430124;28;657097;-70
2021/08/28 00:54:40;;;;;;;18.90;9.53;;;7.90;99.90;;;;;;4410626;28;657582;-70
2021/08/28 00:57:27;;;;;;;18.10;9.93;;;7.80;99.90;;;;;;4415031;28;656674;-70
2021/08/28 01:00:15;;;;;;;14.97;9.27;;;7.80;99.90;;;;;;4428591;28;658165;-70
2021/08/28 01:03:03;;;;;;;16.53;9.33;;;7.80;99.90;;;;;;4411810;28;656820;-70
2021/08/28 01:05:53;;;;;;;16.63;9.83;;;7.80;99.90;;;;;;4423578;28;656790;-70
2021/08/28 01:08:43;;;;;;;16.73;9.47;;;7.80;99.90;;;;;;4403232;28;657255;-70
2021/08/28 01:11:36;;;;;;;15.67;9.20;;;7.80;99.90;;;;;;4407417;28;656907;-70
2021/08/28 01:14:25;;;;;;;14.75;9.48;;;7.80;99.90;;;;;;4380013;28;657126;-70
2021/08/28 01:17:14;;;;;;;19.53;10.03;;;7.80;99.90;;;;;;4411241;28;656638;-70
2021/08/28 01:20:05;;;;;;;15.70;9.90;;;7.80;99.90;;;;;;4428647;28;657470;-70
2021/08/28 01:22:52;;;;;;;20.77;10.63;;;7.70;99.90;;;;;;4388706;28;657026;-70
2021/08/28 01:25:41;;;;;;;19.93;10.80;;;7.70;99.90;;;;;;4432979;28;658553;-70
2021/08/28 01:28:30;;;;;;;19.93;11.00;;;7.70;99.90;;;;;;4410382;28;657533;-70
2021/08/28 01:31:20;;;;;;;23.77;12.50;;;7.70;99.90;;;;;;4409052;28;658268;-70
2021/08/28 01:34:07;;;;;;;17.15;11.40;;;7.70;99.90;;;;;;4409731;28;657806;-70
2021/08/28 01:36:55;;;;;;;25.50;12.80;;;7.70;99.90;;;;;;4428514;28;658469;-70
2021/08/28 01:39:42;;;;;;;23.73;13.15;;;7.70;99.90;;;;;;4409083;28;657826;-70
2021/08/28 01:42:31;;;;;;;22.83;12.87;;;7.70;99.90;;;;;;4433039;28;659230;-70
2021/08/28 01:45:19;;;;;;;23.33;12.63;;;7.70;99.90;;;;;;4399237;28;657722;-70
2021/08/28 01:48:08;;;;;;;22.13;11.57;;;7.60;99.90;;;;;;4428903;28;657700;-70
2021/08/28 01:50:57;;;;;;;20.40;11.63;;;7.60;99.90;;;;;;4399402;28;658469;-70
2021/08/28 01:53:44;;;;;;;20.13;11.70;;;7.60;99.90;;;;;;4406352;28;658434;-70
2021/08/28 01:56:32;;;;;;;20.27;12.37;;;7.60;99.90;;;;;;4429175;28;658002;-70
2021/08/28 01:59:20;;;;;;;18.00;11.13;;;7.60;99.90;;;;;;4405731;28;658229;-70
2021/08/28 02:02:07;;;;;;;20.30;11.17;;;7.50;99.90;;;;;;4413103;28;657529;-70
2021/08/28 02:04:56;;;;;;;18.83;11.37;;;7.50;99.90;;;;;;4431717;28;658218;-70
2021/08/28 02:07:49;;;;;;;18.23;10.37;;;7.50;99.90;;;;;;4405536;28;658459;-70
2021/08/28 02:10:39;;;;;;;16.83;10.47;;;7.50;99.90;;;;;;4402236;28;657746;-70
2021/08/28 02:13:33;;;;;;;19.53;10.27;;;7.50;99.90;;;;;;4425209;28;657681;-70
2021/08/28 02:16:23;;;;;;;17.97;10.80;;;7.50;99.90;;;;;;4408664;28;657721;-70
2021/08/28 02:19:12;;;;;;;20.03;10.30;;;7.40;99.90;;;;;;4409025;28;658024;-70
2021/08/28 02:22:03;;;;;;;21.27;9.77;;;7.40;99.90;;;;;;4404033;28;657974;-70
2021/08/28 02:24:52;;;;;;;18.13;9.50;;;7.40;99.90;;;;;;4409762;28;656901;-70
2021/08/28 02:27:43;;;;;;;19.47;8.70;;;7.40;99.90;;;;;;4403781;28;657609;-70
2021/08/28 02:30:31;;;;;;;16.03;8.97;;;7.50;99.90;;;;;;4409620;28;657575;-70
2021/08/28 02:33:19;;;;;;;19.37;9.10;;;7.50;99.90;;;;;;4404430;28;657431;-70
2021/08/28 02:36:07;;;;;;;14.67;8.80;;;7.50;99.90;;;;;;4424664;28;656421;-70
2021/08/28 02:38:55;;;;;;;15.37;9.10;;;7.50;99.90;;;;;;4404560;28;657485;-70
2021/08/28 02:41:43;;;;;;;16.93;9.43;;;7.40;99.90;;;;;;4412921;28;656478;-70
2021/08/28 02:44:31;;;;;;;15.47;9.80;;;7.40;99.90;;;;;;4432127;28;656275;-70
2021/08/28 02:47:20;;;;;;;15.90;9.60;;;7.40;99.90;;;;;;4408952;28;656741;-70
2021/08/28 02:50:08;;;;;;;23.73;10.17;;;7.50;99.90;;;;;;4414110;28;656616;-70
2021/08/28 02:52:56;;;;;;;20.98;10.07;;;7.40;99.90;;;;;;4430501;28;658199;-70
2021/08/28 02:55:45;;;;;;;18.57;10.27;;;7.50;99.90;;;;;;4404717;28;657319;-70
2021/08/28 02:58:33;;;;;;;15.57;10.40;;;7.40;99.90;;;;;;4412841;28;657489;-70
2021/08/28 03:01:20;;;;;;;17.47;7.87;;;7.50;99.90;;;;;;4429829;28;658134;-70
2021/08/28 03:04:08;;;;;;;13.57;8.77;;;7.50;99.90;;;;;;4407131;28;657076;-70
2021/08/28 03:06:55;;;;;;;17.60;9.70;;;7.50;99.90;;;;;;4427177;28;657071;-70
2021/08/28 03:09:43;;;;;;;14.93;8.53;;;7.50;99.90;;;;;;4413249;28;656332;-70
2021/08/28 03:12:32;;;;;;;15.45;9.50;;;7.50;99.90;;;;;;4431305;28;657263;-70
2021/08/28 03:15:19;;;;;;;16.37;9.37;;;7.60;99.90;;;;;;4413274;28;657051;-70
2021/08/28 03:18:08;;;;;;;18.53;10.00;;;7.60;99.90;;;;;;4431928;28;656716;-70
2021/08/28 03:20:56;;;;;;;19.63;9.87;;;7.60;99.90;;;;;;4430361;28;657753;-70
2021/08/28 03:23:43;;;;;;;14.10;9.27;;;7.60;99.90;;;;;;4406642;28;656192;-70
2021/08/28 03:26:31;;;;;;;15.40;9.43;;;7.60;99.90;;;;;;4429815;28;656167;-70
2021/08/28 03:29:20;;;;;;;16.53;8.73;;;7.60;99.90;;;;;;4408057;28;656532;-70
2021/08/28 03:32:08;;;;;;;18.13;9.90;;;7.60;99.90;;;;;;4403771;28;656363;-70
2021/08/28 03:34:56;;;;;;;15.20;9.37;;;7.60;99.90;;;;;;4431230;28;656811;-70
2021/08/28 03:37:43;;;;;;;16.20;8.17;;;7.60;99.90;;;;;;4412674;28;656950;-70
2021/08/28 03:40:31;;;;;;;17.77;8.77;;;7.60;99.90;;;;;;4427661;28;657221;-70
2021/08/28 03:43:18;;;;;;;20.10;8.20;;;7.60;99.90;;;;;;4412370;28;656267;-70
2021/08/28 03:46:07;;;;;;;22.30;8.90;;;7.60;99.90;;;;;;4414128;28;657542;-70
2021/08/28 03:48:55;;;;;;;19.67;10.50;;;7.50;99.90;;;;;;4391951;28;657787;-70
2021/08/28 03:51:42;;;;;;;16.87;9.80;;;7.50;99.90;;;;;;4399154;28;657641;-70
2021/08/28 03:54:30;;;;;;;17.90;10.50;;;7.50;99.90;;;;;;4414079;28;657345;-70
2021/08/28 03:57:17;;;;;;;18.55;9.52;;;7.50;99.90;;;;;;4394192;28;657915;-70
2021/08/28 04:00:06;;;;;;;60.63;10.03;;;7.50;99.90;;;;;;4428334;28;657832;-70
2021/08/28 04:02:55;;;;;;;43.22;10.40;;;7.50;99.90;;;;;;4411447;28;658293;-70
2021/08/28 04:05:42;;;;;;;18.58;9.27;;;7.60;99.90;;;;;;4410613;28;657531;-70
2021/08/28 04:08:30;;;;;;;16.43;9.30;;;7.50;99.90;;;;;;4429172;28;657696;-70
2021/08/28 04:11:17;;;;;;;15.87;9.13;;;7.60;99.90;;;;;;4412172;28;657018;-70
2021/08/28 04:14:05;;;;;;;15.17;8.93;;;7.60;99.90;;;;;;4425264;28;657031;-70
2021/08/28 04:16:53;;;;;;;16.77;9.27;;;7.60;99.90;;;;;;4408798;28;656661;-70
2021/08/28 04:19:42;;;;;;;17.33;10.57;;;7.60;99.90;;;;;;4433905;28;657445;-70
2021/08/28 04:22:29;;;;;;;17.77;10.33;;;7.70;99.90;;;;;;4407366;28;658644;-70
2021/08/28 04:25:17;;;;;;;19.63;9.90;;;7.70;99.90;;;;;;4421028;28;657555;-70
2021/08/28 04:28:05;;;;;;;17.23;9.50;;;7.80;99.90;;;;;;4411494;28;656982;-70
2021/08/28 04:30:52;;;;;;;15.70;9.20;;;7.80;99.90;;;;;;4415094;28;656428;-70
2021/08/28 04:33:40;;;;;;;14.27;8.30;;;7.80;99.90;;;;;;4431306;28;656899;-70
2021/08/28 04:36:29;;;;;;;19.17;8.97;;;7.90;99.90;;;;;;4410742;28;657264;-70
2021/08/28 04:39:16;;;;;;;18.83;9.50;;;8.00;99.90;;;;;;4425656;28;656810;-70
2021/08/28 04:42:04;;;;;;;14.23;8.63;;;8.10;99.90;;;;;;4407710;28;658181;-70
2021/08/28 04:44:54;;;;;;;16.07;8.10;;;8.10;99.90;;;;;;4423401;28;656799;-70
2021/08/28 04:47:41;;;;;;;13.50;8.63;;;8.20;99.90;;;;;;4407655;28;656543;-70
2021/08/28 04:50:29;;;;;;;18.03;9.53;;;8.30;99.90;;;;;;4407650;28;657427;-70
2021/08/28 04:53:18;;;;;;;16.17;9.43;;;8.40;99.90;;;;;;4415670;28;656604;-70
2021/08/28 04:56:06;;;;;;;12.63;8.43;;;8.50;99.90;;;;;;4407467;28;657221;-70
2021/08/28 04:58:54;;;;;;;16.03;9.20;;;8.60;99.90;;;;;;4411489;28;657517;-70
2021/08/28 05:01:42;;;;;;;15.30;9.53;;;8.70;99.90;;;;;;4428842;28;656158;-70
2021/08/28 05:04:29;;;;;;;14.77;9.70;;;8.80;99.90;;;;;;4403871;28;656993;-70
2021/08/28 05:07:17;;;;;;;17.27;10.97;;;9.00;99.90;;;;;;4427734;28;657032;-70
2021/08/28 05:10:07;;;;;;;17.67;11.13;;;9.10;99.90;;;;;;4424614;28;658387;-70
2021/08/28 05:12:54;;;;;;;21.00;12.20;;;9.20;99.90;;;;;;4409914;28;657562;-70
2021/08/28 05:15:42;;;;;;;20.43;10.93;;;9.40;99.90;;;;;;4429251;28;657986;-70
2021/08/28 05:18:29;;;;;;;22.97;11.83;;;9.50;99.90;;;;;;4405012;28;658381;-70
2021/08/28 05:21:17;;;;;;;28.87;13.57;;;9.60;99.90;;;;;;4420499;28;657241;-70
2021/08/28 05:24:05;;;;;;;23.03;15.67;;;9.70;99.90;;;;;;4422787;28;657948;-70
2021/08/28 05:26:54;;;;;;;24.60;13.43;;;9.80;99.90;;;;;;4410411;28;657413;-70
2021/08/28 05:29:42;;;;;;;19.27;13.13;;;9.90;99.90;;;;;;4426624;28;657711;-70
2021/08/28 05:32:30;;;;;;;17.17;11.47;;;10.10;99.90;;;;;;4428695;28;658507;-70
2021/08/28 05:35:17;;;;;;;14.70;10.03;;;10.20;99.90;;;;;;4407541;28;659020;-70
2021/08/28 05:38:05;;;;;;;14.00;9.10;;;10.40;99.90;;;;;;4426111;28;659650;-70
2021/08/28 05:40:52;;;;;;;17.47;9.13;;;10.50;99.90;;;;;;4413950;28;658174;-70
2021/08/28 05:43:41;;;;;;;12.23;7.30;;;10.60;99.90;;;;;;4436302;28;658208;-70
2021/08/28 05:46:29;;;;;;;11.37;7.70;;;10.80;99.90;;;;;;4407804;28;657957;-70
2021/08/28 05:49:16;;;;;;;14.00;7.67;;;10.80;99.90;;;;;;4431542;28;658180;-70
2021/08/28 05:52:04;;;;;;;9.30;6.60;;;11.00;99.90;;;;;;4409087;28;659107;-70
2021/08/28 05:54:52;;;;;;;10.10;6.27;;;11.10;99.90;;;;;;4428613;28;657212;-70
2021/08/28 05:57:40;;;;;;;8.00;5.80;;;11.20;99.90;;;;;;4432202;28;658513;-70
2021/08/28 06:00:29;;;;;;;9.30;5.53;;;11.40;99.90;;;;;;4414840;28;656521;-70
2021/08/28 06:03:17;;;;;;;7.18;5.00;;;11.50;99.90;;;;;;4432778;28;656673;-71
2021/08/28 06:06:05;;;;;;;7.40;4.93;;;11.70;99.90;;;;;;4407243;28;657127;-70
2021/08/28 06:08:52;;;;;;;7.18;4.78;;;11.80;99.90;;;;;;4409422;28;656876;-70
2021/08/28 06:11:40;;;;;;;7.07;4.30;;;11.80;99.90;;;;;;4437081;28;656965;-70
2021/08/28 06:14:27;;;;;;;6.43;4.00;;;12.00;99.90;;;;;;4409152;28;656505;-70
2021/08/28 06:17:16;;;;;;;4.97;3.60;;;12.10;99.90;;;;;;4436375;28;657130;-70
2021/08/28 06:20:05;;;;;;;4.63;3.23;;;12.20;99.90;;;;;;4410092;28;658703;-70
2021/08/28 06:22:52;;;;;;;5.88;3.70;;;12.30;99.90;;;;;;4411881;28;656254;-70
2021/08/28 06:25:40;;;;;;;6.20;3.30;;;12.30;99.90;;;;;;4432390;28;656929;-70
2021/08/28 06:28:27;;;;;;;8.82;3.45;;;12.50;99.90;;;;;;4414173;28;656922;-70
2021/08/28 06:31:15;;;;;;;3.37;2.57;;;12.60;99.90;;;;;;4436844;28;657277;-70
2021/08/28 06:34:04;;;;;;;3.83;2.70;;;12.70;99.90;;;;;;4413775;28;656392;-70
2021/08/28 06:36:52;;;;;;;5.50;2.97;;;12.80;99.90;;;;;;4433136;28;656329;-70
2021/08/28 06:39:39;;;;;;;4.70;2.60;;;12.90;99.90;;;;;;4414829;28;656818;-70
2021/08/28 06:42:27;;;;;;;5.53;2.80;;;12.90;99.90;;;;;;4423161;28;656553;-70
2021/08/28 06:45:15;;;;;;;3.90;2.60;;;13.00;99.90;;;;;;4427718;28;656667;-70
2021/08/28 06:48:03;;;;;;;4.03;2.50;;;13.20;99.90;;;;;;4410801;28;656593;-70
2021/08/28 06:50:52;;;;;;;4.33;2.60;;;13.30;99.90;;;;;;4422255;28;657203;-70
2021/08/28 06:53:39;;;;;;;5.40;2.63;;;13.40;99.90;;;;;;4413328;28;657457;-70
2021/08/28 06:56:27;;;;;;;5.57;2.13;;;13.50;99.90;;;;;;4413802;28;656511;-70
2021/08/28 06:59:15;;;;;;;6.20;2.73;;;13.70;99.90;;;;;;4425579;28;656872;-70
2021/08/28 07:02:03;;;;;;;6.77;2.53;;;13.80;98.20;;;;;;4413601;28;656526;-70
2021/08/28 07:04:50;;;;;;;3.37;2.53;;;14.00;99.90;;;;;;4434640;28;656960;-70
2021/08/28 07:07:39;;;;;;;4.67;2.27;;;14.00;99.20;;;;;;4408085;28;657215;-70
2021/08/28 07:10:27;;;;;;;3.90;2.37;;;14.10;66.80;;;;;;4422641;28;656798;-70
2021/08/28 07:13:15;;;;;;;3.60;2.30;;;14.00;67.60;;;;;;4425382;28;657513;-70
2021/08/28 07:16:03;;;;;;;4.00;2.40;;;14.00;65.60;;;;;;4405324;28;656708;-70
2021/08/28 07:18:50;;;;;;;3.70;2.30;;;14.10;72.90;;;;;;4430738;28;657237;-70
2021/08/28 07:21:39;;;;;;;4.33;2.60;;;14.10;41.90;;;;;;4405533;28;656464;-70
2021/08/28 07:24:28;;;;;;;4.03;2.40;;;14.20;47.40;;;;;;4427096;28;656759;-70
2021/08/28 07:27:17;;;;;;;3.40;2.30;;;14.40;55.80;;;;;;4404561;28;656861;-70
2021/08/28 07:30:05;;;;;;;3.63;2.15;;;14.60;53.10;;;;;;4408155;28;657182;-70
2021/08/28 07:32:53;;;;;;;3.80;2.10;;;14.60;32.70;;;;;;4408477;28;656506;-70
2021/08/28 07:35:40;;;;;;;2.70;1.77;;;14.70;29.00;;;;;;4431122;28;657605;-70
2021/08/28 07:38:28;;;;;;;4.17;2.37;;;14.80;23.40;;;;;;4412840;28;656447;-70
2021/08/28 07:41:18;;;;;;;6.63;2.70;;;15.10;37.70;;;;;;4430911;28;656442;-70
2021/08/28 07:44:07;;;;;;;3.70;2.37;;;15.40;31.40;;;;;;4399121;28;657094;-70
2021/08/28 07:46:55;;;;;;;3.40;2.20;;;15.60;11.20;;;;;;4409618;28;657171;-70
2021/08/28 07:49:43;;;;;;;6.40;2.43;;;15.60;1.00;;;;;;4411697;28;656709;-70
2021/08/28 07:52:31;;;;;;;4.38;2.20;;;15.60;1.00;;;;;;4432776;28;656417;-69
2021/08/28 07:55:18;;;;;;;4.13;2.17;;;15.90;1.30;;;;;;4402551;28;656043;-70
2021/08/28 07:58:07;;;;;;;2.93;2.13;;;16.20;1.00;;;;;;4430930;28;655392;-70
2021/08/28 08:00:57;;;;;;;6.73;2.67;;;16.40;1.00;;;;;;4409064;28;655944;-70
2021/08/28 08:03:45;;;;;;;3.57;2.33;;;16.30;1.00;;;;;;4409507;28;656213;-69
2021/08/28 08:06:33;;;;;;;3.23;2.00;;;16.50;1.00;;;;;;4396214;28;655417;-70
2021/08/28 08:09:20;;;;;;;3.53;2.30;;;16.40;1.00;;;;;;4420811;28;656635;-69
2021/08/28 08:12:08;;;;;;;3.60;1.87;;;16.50;99.90;;;;;;4413600;28;655286;-69
2021/08/28 08:14:57;;;;;;;4.63;1.60;;;16.40;99.90;;;;;;4431452;28;656354;-69
2021/08/28 08:17:45;;;;;;;3.53;2.10;;;16.60;99.90;;;;;;4402964;28;657751;-69
2021/08/28 08:20:32;;;;;;;6.27;2.87;;;16.80;99.90;;;;;;4408907;28;656690;-69
2021/08/28 08:23:20;;;;;;;3.10;1.90;;;17.00;99.90;;;;;;4434410;28;657168;-70
2021/08/28 08:26:09;;;;;;;4.97;2.00;;;17.00;99.90;;;;;;4411397;28;656490;-69
2021/08/28 08:28:58;;;;;;;2.33;1.90;;;17.20;99.90;;;;;;4429180;28;656622;-69
2021/08/28 08:31:47;;;;;;;2.97;2.03;;;17.40;99.90;;;;;;4408159;28;656764;-70
2021/08/28 08:34:35;;;;;;;3.30;1.90;;;17.60;99.90;;;;;;4407420;28;657297;-70
2021/08/28 08:37:23;;;;;;;3.20;2.00;;;17.80;1.00;;;;;;4406740;28;656713;-69
2021/08/28 08:40:12;;;;;;;7.90;2.00;;;17.70;1.00;;;;;;4434635;28;656707;-70
2021/08/28 08:43:00;;;;;;;3.67;2.20;;;17.90;1.00;;;;;;4409030;28;656423;-69
2021/08/28 08:45:48;;;;;;;3.87;1.80;;;18.30;1.00;;;;;;4412713;28;655882;-69
2021/08/28 08:48:37;;;;;;;2.13;1.63;;;18.60;1.00;;;;;;4433310;28;656370;-69
2021/08/28 08:51:25;;;;;;;4.30;1.43;;;18.90;1.00;;;;;;4409789;28;656083;-69
2021/08/28 08:54:12;;;;;;;1.87;1.37;;;19.00;99.90;;;;;;4414247;28;655688;-69
2021/08/28 08:57:00;;;;;;;1.87;1.30;;;19.30;99.90;;;;;;4434153;28;656980;-69
2021/08/28 08:59:48;;;;;;;5.00;1.40;;;19.40;1.00;;;;;;4411710;28;656443;-69
2021/08/28 09:02:35;;;;;;;3.33;1.80;;;19.30;1.00;;;;;;4429593;28;656201;-69
2021/08/28 09:05:24;;;;;;;2.50;1.73;;;19.10;1.00;;;;;;4412295;28;655701;-69
2021/08/28 09:08:12;;;;;;;2.13;1.50;;;19.00;1.00;;;;;;4423758;28;655335;-69
2021/08/28 09:10:59;;;;;;;2.60;1.67;;;19.30;1.00;;;;;;4401100;28;656557;-69
2021/08/28 09:13:47;;;;;;;3.73;1.70;;;19.60;99.90;;;;;;4431758;28;655608;-69
2021/08/28 09:16:34;;;;;;;1.80;1.43;;;19.80;99.90;;;;;;4398604;28;656741;-69
2021/08/28 09:19:37;;;;;;;1.70;1.30;;;20.00;21.90;;;;;;4426128;28;656578;-69
2021/08/28 09:22:29;;;;;;;2.53;1.80;;;20.20;1.00;;;;;;4383744;28;656627;-69
2021/08/28 09:25:22;;;;;;;2.67;1.70;;;20.30;1.00;;;;;;4407589;28;655793;-69
2021/08/28 09:28:10;;;;;;;1.80;1.33;;;21.00;1.00;;;;;;4407412;28;655508;-69
2021/08/28 09:30:58;;;;;;;2.60;1.70;;;20.90;1.00;;;;;;4412636;28;655465;-69
2021/08/28 09:33:46;;;;;;;2.23;1.67;;;20.60;1.00;;;;;;4432215;28;656187;-69
2021/08/28 09:36:33;;;;;;;4.00;2.10;;;20.50;1.00;;;;;;4409671;28;655657;-69
2021/08/28 09:39:23;;;;;;;1.87;1.40;;;20.70;99.90;;;;;;4430910;28;655105;-69
2021/08/28 09:42:12;;;;;;;2.10;1.70;;;21.20;99.90;;;;;;4405927;28;657381;-69
2021/08/28 09:45:08;;;;;;;1.30;1.20;;;21.60;1.00;;;;;;4408073;28;656990;-69
2021/08/28 09:47:56;;;;;;;5.33;1.70;;;21.70;99.90;;;;;;4401772;28;656185;-69
2021/08/28 09:50:44;;;;;;;2.57;1.20;;;21.70;1.00;;;;;;4401321;28;656499;-69
2021/08/28 09:53:34;;;;;;;1.63;1.20;;;21.50;99.90;;;;;;4424201;28;655727;-70
2021/08/28 09:56:25;;;;;;;1.90;1.50;;;21.30;1.00;;;;;;4402407;28;656570;-69
2021/08/28 09:59:22;;;;;;;1.40;1.30;;;21.60;99.90;;;;;;4389572;28;655996;-69
2021/08/28 10:02:10;;;;;;;1.20;1.10;;;22.10;99.90;;;;;;4405307;28;656926;-69
2021/08/28 10:04:59;;;;;;;2.57;1.70;;;22.20;99.90;;;;;;4410440;28;656956;-69
2021/08/28 10:07:46;;;;;;;1.63;1.30;;;22.00;99.90;;;;;;4427953;28;656125;-69
2021/08/28 10:10:35;;;;;;;2.20;1.43;;;22.20;99.90;;;;;;4407257;28;658467;-69
2021/08/28 10:13:25;;;;;;;3.60;0.97;;;22.20;99.90;;;;;;4411483;28;656280;-69
2021/08/28 10:16:13;;;;;;;1.00;1.00;;;21.30;1.00;;;;;;4410112;28;656864;-69
2021/08/28 10:19:00;;;;;;;2.77;1.17;;;21.40;1.00;;;;;;4426301;28;656635;-69
2021/08/28 10:21:49;;;;;;;2.00;1.00;;;21.30;1.00;;;;;;4409533;28;656062;-69
2021/08/28 10:24:37;;;;;;;0.93;0.80;;;20.80;1.00;;;;;;4430704;28;655948;-70
2021/08/28 10:27:25;;;;;;;1.60;0.90;;;20.20;1.00;;;;;;4394132;28;656614;-69
2021/08/28 10:30:14;;;;;;;1.07;0.90;;;20.10;1.00;;;;;;4398049;28;655310;-69
2021/08/28 10:33:03;;;;;;;1.43;1.00;;;19.70;1.00;;;;;;4406536;28;655645;-70
2021/08/28 10:35:51;;;;;;;10.20;2.10;;;19.70;1.00;;;;;;4408403;28;656663;-69
2021/08/28 10:38:38;;;;;;;3.63;1.37;;;19.90;99.90;;;;;;4396478;28;657048;-69
2021/08/28 10:41:26;;;;;;;1.87;1.20;;;19.80;1.00;;;;;;4412364;28;656745;-69
2021/08/28 10:44:13;;;;;;;1.27;1.07;;;20.10;72.50;;;;;;4395498;28;655726;-69
2021/08/28 10:47:05;;;;;;;3.17;1.77;;;20.90;99.90;;;;;;4411906;28;656892;-69
2021/08/28 10:49:53;;;;;;;1.33;1.20;;;21.10;1.00;;;;;;4373040;28;657298;-69
2021/08/28 10:52:41;;;;;;;1.70;1.00;;;21.20;1.00;;;;;;4416323;28;656593;-69
2021/08/28 10:55:36;;;;;;;1.77;1.20;;;21.80;1.00;;;;;;4389582;28;655460;-69
2021/08/28 10:58:25;;;;;;;2.03;1.13;;;21.60;1.00;;;;;;4374939;28;656185;-69
2021/08/28 11:01:12;;;;;;;1.57;1.00;;;21.40;1.00;;;;;;4389704;28;655422;-69
2021/08/28 11:04:13;;;;;;;2.53;1.30;;;21.30;1.00;;;;;;4416034;28;656227;-69
2021/08/28 11:07:41;;;;;;;2.57;1.60;;;21.00;1.00;;;;;;4387856;28;655405;-69
2021/08/28 11:10:29;;;;;;;2.07;1.20;;;20.90;1.00;;;;;;4368883;28;656172;-69
2021/08/28 11:13:16;;;;;;;4.50;1.40;;;20.70;1.00;;;;;;4415448;28;655055;-69
2021/08/28 11:16:04;;;;;;;1.40;1.30;;;21.00;1.00;;;;;;4393221;28;655284;-69
2021/08/28 11:18:56;;;;;;;1.30;1.10;;;20.80;1.00;;;;;;4405966;28;655605;-69
2021/08/28 11:21:46;;;;;;;1.50;1.10;;;20.50;1.00;;;;;;4392017;28;655630;-68
2021/08/28 11:24:33;;;;;;;3.03;1.30;;;20.20;1.00;;;;;;4384839;28;656212;-69
2021/08/28 11:27:36;;;;;;;1.73;1.07;;;20.30;1.00;;;;;;4427304;28;655855;-68
2021/08/28 11:30:55;;;;;;;2.40;1.30;;;20.30;1.00;;;;;;4412476;28;655351;-68
2021/08/28 11:33:42;;;;;;;2.23;1.40;;;20.10;1.00;;;;;;4392833;28;655908;-68
2021/08/28 11:36:30;;;;;;;4.60;1.60;;;19.70;1.00;;;;;;4427559;28;656274;-68
2021/08/28 11:39:25;;;;;;;2.33;1.60;;;19.40;1.00;;;;;;4413894;28;655392;-68
2021/08/28 11:42:13;;;;;;;4.00;1.60;;;19.20;23.90;;;;;;4382662;28;655623;-68
2021/08/28 11:45:00;;;;;;;2.20;1.70;;;19.00;99.90;;;;;;4432658;28;657167;-68
2021/08/28 11:47:48;;;;;;;2.63;1.80;;;18.80;99.90;;;;;;4405859;28;656325;-69
2021/08/28 11:50:35;;;;;;;2.13;1.47;;;18.80;1.00;;;;;;4430017;28;658325;-69
2021/08/28 11:53:27;;;;;;;3.33;2.03;;;19.00;97.60;;;;;;4410345;28;656410;-68
2021/08/28 11:56:17;;;;;;;2.40;2.20;;;19.00;1.00;;;;;;4405125;28;657591;-68
2021/08/28 11:59:06;;;;;;;3.10;2.03;;;18.90;24.00;;;;;;4413567;28;656246;-68
2021/08/28 12:01:53;;;;;;;3.43;2.40;;;18.90;99.90;;;;;;4406514;28;656607;-68
2021/08/28 12:04:41;;;;;;;7.03;1.60;;;19.10;99.90;;;;;;4426162;28;657385;-68
2021/08/28 12:07:28;;;;;;;3.10;1.30;;;19.30;70.90;;;;;;4406875;28;656398;-68
2021/08/28 12:10:16;;;;;;;1.67;1.50;;;19.60;1.00;;;;;;4423716;28;657029;-68
2021/08/28 12:13:05;;;;;;;2.70;1.50;;;19.70;1.00;;;;;;4408572;28;655453;-68
2021/08/28 12:15:54;;;;;;;1.87;1.77;;;19.70;1.00;;;;;;4413776;28;655802;-68
2021/08/28 12:18:42;;;;;;;2.20;1.40;;;19.70;1.00;;;;;;4420606;28;656390;-68
2021/08/28 12:21:30;;;;;;;3.63;1.77;;;19.70;1.00;;;;;;4425902;28;656716;-68
2021/08/28 12:24:19;;;;;;;2.13;1.60;;;19.60;1.00;;;;;;4413666;28;655755;-68
2021/08/28 12:27:08;;;;;;;2.10;1.57;;;19.50;1.00;;;;;;4416734;28;656126;-68
2021/08/28 12:29:57;;;;;;;4.70;1.80;;;19.70;99.90;;;;;;4423393;28;656149;-68
2021/08/28 12:32:45;;;;;;;2.87;1.60;;;19.80;99.90;;;;;;4405639;28;658145;-68
2021/08/28 12:35:32;;;;;;;2.70;1.70;;;20.00;60.10;;;;;;4411516;28;656500;-68
2021/08/28 12:38:21;;;;;;;4.33;2.20;;;20.30;99.90;;;;;;4430644;28;656351;-68
2021/08/28 12:41:09;;;;;;;3.20;1.60;;;20.40;1.00;;;;;;4412926;28;657199;-68
2021/08/28 12:43:56;;;;;;;5.83;1.70;;;20.70;1.00;;;;;;4443728;28;655356;-68
2021/08/28 12:46:46;;;;;;;5.27;2.47;;;20.90;1.00;;;;;;4423256;28;656247;-68
2021/08/28 12:49:34;;;;;;;3.20;1.80;;;21.00;1.00;;;;;;4413429;28;657119;-68
2021/08/28 12:52:22;;;;;;;4.00;2.00;;;21.00;1.00;;;;;;4428475;28;655733;-68
2021/08/28 12:55:19;;;;;;;2.97;1.90;;;21.40;99.90;;;;;;4407101;28;656499;-68
2021/08/28 12:58:09;;;;;;;3.07;1.77;;;21.50;99.90;;;;;;4401343;28;656493;-67
2021/08/28 13:00:56;;;;;;;4.47;2.00;;;21.90;99.90;;;;;;4428088;28;656084;-68
2021/08/28 13:03:49;;;;;;;2.57;1.77;;;22.50;1.00;;;;;;4407836;28;658449;-68
2021/08/28 13:06:37;;;;;;;2.50;1.53;;;23.00;1.00;;;;;;4390945;28;655295;-68
2021/08/28 13:09:25;;;;;;;1.70;1.33;;;23.00;99.90;;;;;;4431746;28;656551;-68
2021/08/28 13:12:13;;;;;;;2.40;1.40;;;23.30;77.50;;;;;;4410067;28;656845;-68
2021/08/28 13:15:00;;;;;;;4.50;1.17;;;23.40;1.00;;;;;;4429333;28;657536;-68
2021/08/28 13:17:48;;;;;;;2.53;1.37;;;23.80;1.00;;;;;;4410050;28;655387;-68
2021/08/28 13:20:39;;;;;;;2.00;1.38;;;24.30;99.90;;;;;;4426502;28;656935;-68
2021/08/28 13:23:27;;;;;;;1.80;1.40;;;24.10;59.50;;;;;;4400134;28;656363;-69
2021/08/28 13:26:15;;;;;;;1.88;1.42;;;24.20;99.90;;;;;;4407935;28;656942;-69
2021/08/28 13:29:03;;;;;;;2.38;1.40;;;24.50;99.90;;;;;;4412367;28;656737;-68
2021/08/28 13:31:51;;;;;;;2.05;1.45;;;24.60;67.30;;;;;;4431065;28;657882;-69
2021/08/28 13:34:39;;;;;;;1.88;1.33;;;24.60;99.90;;;;;;4412219;28;656459;-69
2021/08/28 13:37:28;;;;;;;3.75;1.25;;;24.50;26.90;;;;;;4431471;28;656910;-69
2021/08/28 13:40:15;;;;;;;2.05;1.60;;;24.70;1.00;;;;;;4404462;28;657936;-69
2021/08/28 13:43:03;;;;;;;1.38;1.27;;;24.70;1.00;;;;;;4410872;28;655206;-68
2021/08/28 13:45:51;;;;;;;2.33;1.23;;;23.50;1.00;;;;;;4432170;28;655914;-69
2021/08/28 13:48:39;;;;;;;3.00;1.00;;;22.60;1.00;;;;;;4405869;28;655522;-69
2021/08/28 13:51:26;;;;;;;2.10;1.17;;;22.30;1.00;;;;;;4432014;28;656202;-68
2021/08/28 13:54:15;;;;;;;1.67;1.13;;;22.00;1.00;;;;;;4409214;28;656718;-68
2021/08/28 13:57:03;;;;;;;1.43;1.27;;;22.00;1.00;;;;;;4413015;28;655709;-68
2021/08/28 13:59:51;;;;;;;2.80;0.93;;;21.60;1.00;;;;;;4434997;28;655188;-68
2021/08/28 14:02:38;;;;;;;3.67;1.20;;;21.20;1.00;;;;;;4412220;28;655425;-68
2021/08/28 14:05:26;;;;;;;1.63;1.00;;;21.20;18.40;;;;;;4434757;28;656327;-68
2021/08/28 14:08:14;;;;;;;1.83;1.10;;;21.00;64.60;;;;;;4415340;28;656780;-68
2021/08/28 14:11:04;;;;;;;1.00;0.90;;;20.70;99.90;;;;;;4421004;28;656700;-69
2021/08/28 14:13:51;;;;;;;0.97;0.80;;;20.80;99.90;;;;;;4433632;28;656770;-68
2021/08/28 14:16:39;;;;;;;1.57;0.93;;;20.70;99.90;;;;;;4408007;28;656529;-68
2021/08/28 14:19:27;;;;;;;1.40;0.90;;;20.70;99.90;;;;;;4433658;28;656224;-68
2021/08/28 14:22:15;;;;;;;2.43;1.10;;;20.80;99.90;;;;;;4437907;28;656992;-69
2021/08/28 14:25:03;;;;;;;1.67;1.10;;;21.50;99.90;;;;;;4414983;28;656649;-68
2021/08/28 14:27:52;;;;;;;1.00;0.90;;;21.70;99.90;;;;;;4432771;28;657624;-69